createdAt,value
2018-05-26T00:00:17.647Z,14.90
2018-05-26T00:02:43.807Z,15.30
2018-05-26T00:05:09.877Z,17.13
2018-05-26T00:07:35.965Z,15.93
2018-05-26T00:10:02.122Z,15.20
2018-05-26T00:12:28.237Z,16.40
2018-05-26T00:14:54.305Z,15.93
2018-05-26T00:17:20.393Z,16.23
2018-05-26T00:19:46.494Z,16.67
2018-05-26T00:22:12.601Z,14.03
2018-05-26T00:24:38.682Z,13.47
2018-05-26T00:27:04.883Z,13.30
2018-05-26T00:29:30.962Z,14.73
2018-05-26T00:31:57.042Z,14.60
2018-05-26T00:34:23.124Z,16.60
2018-05-26T00:36:49.305Z,16.17
2018-05-26T00:39:16.141Z,14.80
2018-05-26T00:41:42.982Z,16.50
2018-05-26T00:44:09.073Z,14.80
2018-05-26T00:46:35.174Z,16.33
2018-05-26T00:49:01.253Z,16.27
2018-05-26T00:51:27.395Z,15.70
2018-05-26T00:53:53.507Z,14.10
2018-05-26T00:56:20.337Z,14.27
2018-05-26T00:58:46.447Z,13.43
2018-05-26T01:01:12.554Z,14.63
2018-05-26T01:03:38.712Z,14.40
2018-05-26T01:06:04.815Z,16.17
2018-05-26T01:08:31.666Z,15.23
2018-05-26T01:10:58.507Z,16.77
2018-05-26T01:13:24.611Z,15.77
2018-05-26T01:15:50.749Z,15.60
2018-05-26T01:18:16.852Z,17.27
2018-05-26T01:20:42.949Z,16.93
2018-05-26T01:23:09.048Z,18.07
2018-05-26T01:25:35.147Z,15.47
2018-05-26T01:28:02.003Z,16.97
2018-05-26T01:30:28.834Z,15.57
2018-05-26T01:32:54.934Z,16.10
2018-05-26T01:35:21.038Z,15.33
2018-05-26T01:37:47.891Z,15.03
2018-05-26T01:40:14.717Z,15.80
2018-05-26T01:42:40.815Z,15.57
2018-05-26T01:45:06.891Z,15.00
2018-05-26T01:47:32.991Z,15.47
2018-05-26T01:49:59.061Z,15.47
2018-05-26T01:52:25.186Z,15.10
2018-05-26T01:54:51.265Z,15.40
2018-05-26T01:57:18.089Z,15.13
2018-05-26T01:59:44.157Z,14.10
2018-05-26T02:02:10.222Z,13.77
2018-05-26T02:04:36.310Z,14.97
2018-05-26T02:07:02.389Z,16.07
2018-05-26T02:09:28.469Z,15.60
2018-05-26T02:11:55.277Z,16.90
2018-05-26T02:14:22.114Z,17.97
2018-05-26T02:16:48.946Z,17.97
2018-05-26T02:19:15.058Z,17.00
2018-05-26T02:21:41.129Z,17.10
2018-05-26T02:24:07.227Z,15.93
2018-05-26T02:26:33.288Z,16.63
2018-05-26T02:28:59.385Z,18.13
2018-05-26T02:31:25.459Z,16.43
2018-05-26T02:33:51.559Z,15.50
2018-05-26T02:36:17.634Z,16.37
2018-05-26T02:38:43.722Z,18.27
2018-05-26T02:41:10.590Z,18.30
2018-05-26T02:43:36.685Z,18.20
2018-05-26T02:46:02.763Z,17.13
2018-05-26T02:48:28.870Z,17.67
2018-05-26T02:50:54.940Z,18.97
2018-05-26T02:53:21.018Z,17.50
2018-05-26T02:55:47.123Z,17.37
2018-05-26T02:58:13.228Z,16.90
2018-05-26T03:00:39.295Z,16.30
2018-05-26T03:03:05.401Z,16.87
2018-05-26T03:05:37.486Z,14.97
2018-05-26T03:08:10.577Z,15.60
2018-05-26T03:10:42.818Z,17.00
2018-05-26T03:13:15.208Z,15.63
2018-05-26T03:15:42.140Z,15.47
2018-05-26T03:18:10.112Z,14.90
2018-05-26T03:20:36.940Z,16.70
2018-05-26T03:23:03.011Z,15.63
2018-05-26T03:25:29.107Z,15.67
2018-05-26T03:27:55.185Z,16.90
2018-05-26T03:30:21.265Z,15.10
2018-05-26T03:32:47.334Z,14.87
2018-05-26T03:35:13.423Z,15.13
2018-05-26T03:37:39.547Z,16.73
2018-05-26T03:40:05.631Z,16.23
2018-05-26T03:42:31.731Z,17.03
2018-05-26T03:44:57.823Z,15.07
2018-05-26T03:47:23.913Z,16.23
2018-05-26T03:49:49.999Z,15.30
2018-05-26T03:52:16.810Z,16.30
2018-05-26T03:58:05.857Z,16.10
2018-05-26T04:00:31.955Z,18.20
2018-05-26T04:02:58.024Z,18.17
2018-05-26T04:05:24.135Z,17.30
2018-05-26T04:07:50.219Z,16.87
2018-05-26T04:10:17.034Z,17.53
2018-05-26T04:12:43.123Z,17.53
2018-05-26T04:15:09.934Z,15.60
2018-05-26T04:17:36.024Z,16.43
2018-05-26T04:20:02.107Z,16.83
2018-05-26T04:22:28.180Z,16.33
2018-05-26T04:24:54.994Z,17.07
2018-05-26T04:27:21.822Z,15.50
2018-05-26T04:29:47.902Z,16.10
2018-05-26T04:32:13.991Z,16.43
2018-05-26T04:34:40.062Z,15.97
2018-05-26T04:37:06.145Z,16.40
2018-05-26T04:39:32.966Z,15.57
2018-05-26T04:41:59.045Z,18.30
2018-05-26T04:44:25.201Z,16.47
2018-05-26T04:46:51.289Z,17.30
2018-05-26T04:49:17.374Z,16.73
2018-05-26T04:51:43.465Z,17.23
2018-05-26T04:54:09.766Z,18.10
2018-05-26T04:56:35.874Z,17.20
2018-05-26T04:59:02.701Z,19.17
2018-05-26T05:01:28.809Z,16.80
2018-05-26T05:03:54.894Z,18.43
2018-05-26T05:06:21.747Z,17.70
2018-05-26T05:08:47.843Z,17.30
2018-05-26T05:11:13.938Z,18.00
2018-05-26T05:13:40.767Z,17.47
2018-05-26T05:16:06.969Z,19.03
2018-05-26T05:18:33.057Z,19.60
2018-05-26T05:20:59.376Z,20.80
2018-05-26T05:23:25.590Z,23.10
2018-05-26T05:25:51.902Z,21.83
2018-05-26T05:28:18.808Z,22.27
2018-05-26T05:30:44.927Z,22.97
2018-05-26T05:33:11.036Z,22.47
2018-05-26T05:35:37.203Z,21.50
2018-05-26T05:38:03.306Z,21.70
2018-05-26T05:40:30.117Z,21.73
2018-05-26T05:42:56.235Z,21.00
2018-05-26T05:45:22.330Z,20.07
2018-05-26T05:47:49.165Z,19.60
2018-05-26T05:50:15.362Z,18.00
2018-05-26T05:52:41.503Z,19.20
2018-05-26T05:55:07.645Z,16.93
2018-05-26T05:57:33.777Z,16.87
2018-05-26T05:59:59.918Z,16.03
2018-05-26T06:02:26.012Z,16.53
2018-05-26T06:04:52.835Z,16.73
2018-05-26T06:07:18.949Z,16.53
2018-05-26T06:09:45.086Z,16.10
2018-05-26T06:12:11.183Z,15.23
2018-05-26T06:14:37.273Z,15.23
2018-05-26T06:17:03.427Z,14.30
2018-05-26T06:19:29.525Z,13.80
2018-05-26T06:21:55.618Z,12.57
2018-05-26T06:24:21.724Z,13.50
2018-05-26T06:26:47.826Z,13.27
2018-05-26T06:29:13.986Z,13.47
2018-05-26T06:31:40.107Z,14.17
2018-05-26T06:34:06.175Z,12.80
2018-05-26T06:36:32.241Z,14.00
2018-05-26T06:38:58.333Z,13.10
2018-05-26T06:41:24.416Z,13.60
2018-05-26T06:43:50.524Z,11.77
2018-05-26T06:46:16.618Z,13.80
2018-05-26T06:48:43.445Z,12.87
2018-05-26T06:51:09.533Z,11.70
2018-05-26T06:53:35.629Z,13.87
2018-05-26T06:56:01.701Z,12.70
2018-05-26T06:58:28.556Z,13.40
2018-05-26T07:00:54.661Z,13.60
2018-05-26T07:03:20.758Z,11.40
2018-05-26T07:05:46.846Z,11.23
2018-05-26T07:08:12.938Z,11.90
2018-05-26T07:10:39.009Z,12.23
2018-05-26T07:13:05.112Z,10.53
2018-05-26T07:15:31.181Z,11.67
2018-05-26T07:17:57.274Z,9.87
2018-05-26T07:20:23.354Z,9.90
2018-05-26T07:22:49.443Z,9.27
2018-05-26T07:25:15.525Z,8.27
2018-05-26T07:27:41.621Z,8.93
2018-05-26T07:30:07.705Z,8.17
2018-05-26T07:32:33.805Z,8.10
2018-05-26T07:34:59.963Z,9.33
2018-05-26T07:37:26.049Z,9.10
2018-05-26T07:39:52.869Z,8.13
2018-05-26T07:42:19.027Z,9.73
2018-05-26T07:44:45.119Z,6.40
2018-05-26T07:47:11.227Z,6.83
2018-05-26T07:49:37.395Z,7.60
2018-05-26T07:52:03.521Z,7.37
2018-05-26T07:54:29.678Z,7.50
2018-05-26T07:56:55.774Z,6.30
2018-05-26T07:59:22.605Z,6.23
2018-05-26T08:01:48.682Z,5.73
2018-05-26T08:04:15.519Z,6.37
2018-05-26T08:06:42.421Z,5.97
2018-05-26T08:09:09.263Z,5.43
2018-05-26T08:11:35.344Z,6.00
2018-05-26T08:14:01.453Z,4.77
2018-05-26T08:16:27.542Z,4.60
2018-05-26T08:18:53.637Z,5.20
2018-05-26T08:21:19.729Z,4.60
2018-05-26T08:23:45.843Z,4.90
2018-05-26T08:26:11.934Z,5.00
2018-05-26T08:28:38.025Z,5.33
2018-05-26T08:31:04.124Z,6.10
2018-05-26T08:33:30.236Z,6.30
2018-05-26T08:35:56.325Z,6.00
2018-05-26T08:38:22.427Z,5.53
2018-05-26T08:40:48.517Z,7.00
2018-05-26T08:43:14.622Z,5.27
2018-05-26T08:45:40.698Z,6.10
2018-05-26T08:48:07.538Z,5.00
2018-05-26T08:50:33.631Z,5.67
2018-05-26T08:52:59.723Z,5.53
2018-05-26T08:55:25.801Z,6.00
2018-05-26T08:57:51.898Z,6.60
2018-05-26T09:00:17.980Z,6.13
2018-05-26T09:02:44.074Z,6.63
2018-05-26T09:05:10.159Z,5.40
2018-05-26T09:07:36.261Z,6.70
2018-05-26T09:10:03.082Z,6.97
2018-05-26T09:12:29.174Z,6.70
2018-05-26T09:14:55.245Z,6.40
2018-05-26T09:17:21.325Z,6.00
2018-05-26T09:19:47.449Z,5.93
2018-05-26T09:22:13.513Z,5.30
2018-05-26T09:24:39.616Z,6.70
2018-05-26T09:27:05.707Z,5.90
2018-05-26T09:29:31.804Z,6.70
2018-05-26T09:31:57.887Z,5.70
2018-05-26T09:34:23.986Z,6.30
2018-05-26T09:36:50.065Z,7.10
2018-05-26T09:39:16.159Z,6.17
2018-05-26T09:41:42.241Z,6.53
2018-05-26T09:44:08.334Z,5.33
2018-05-26T09:46:34.412Z,7.10
2018-05-26T09:49:00.491Z,5.63
2018-05-26T09:51:26.557Z,6.03
2018-05-26T09:53:53.395Z,6.37
2018-05-26T09:56:19.473Z,6.90
2018-05-26T09:58:45.544Z,5.70
2018-05-26T10:01:11.616Z,6.17
2018-05-26T10:03:37.712Z,5.50
2018-05-26T10:06:03.795Z,5.53
2018-05-26T10:08:30.762Z,5.90
2018-05-26T10:10:57.587Z,6.50
2018-05-26T10:13:23.669Z,5.87
2018-05-26T10:15:49.734Z,5.70
2018-05-26T10:18:15.818Z,5.60
2018-05-26T10:20:42.631Z,5.77
2018-05-26T10:23:08.722Z,5.73
2018-05-26T10:25:34.802Z,5.50
2018-05-26T10:28:00.890Z,5.17
2018-05-26T10:30:27.698Z,5.67
2018-05-26T10:32:53.786Z,5.37
2018-05-26T10:35:20.604Z,5.50
2018-05-26T10:37:46.669Z,6.30
2018-05-26T10:40:14.811Z,6.77
2018-05-26T10:42:40.901Z,6.47
2018-05-26T10:45:07.733Z,6.27
2018-05-26T10:47:33.806Z,5.40
2018-05-26T10:49:59.984Z,5.67
2018-05-26T10:52:26.071Z,5.47
2018-05-26T10:54:52.899Z,5.50
2018-05-26T10:57:18.979Z,6.07
2018-05-26T10:59:45.053Z,5.63
2018-05-26T11:02:11.150Z,5.80
2018-05-26T11:04:37.983Z,6.37
2018-05-26T11:07:04.068Z,6.40
2018-05-26T11:09:30.204Z,7.10
2018-05-26T11:11:56.277Z,5.20
2018-05-26T11:14:22.364Z,5.67
2018-05-26T11:16:48.466Z,5.90
2018-05-26T11:19:14.559Z,6.07
2018-05-26T11:21:40.622Z,5.90
2018-05-26T11:24:06.954Z,5.00
2018-05-26T11:26:32.791Z,5.50
2018-05-26T11:28:58.920Z,5.30
2018-05-26T11:31:24.960Z,5.47
2018-05-26T11:33:51.056Z,6.20
2018-05-26T11:36:17.139Z,5.20
2018-05-26T11:38:43.231Z,5.83
2018-05-26T11:41:10.043Z,5.30
2018-05-26T11:43:36.162Z,5.60
2018-05-26T11:46:02.254Z,5.10
2018-05-26T11:48:28.358Z,6.10
2018-05-26T11:50:54.451Z,7.33
2018-05-26T11:53:20.556Z,5.40
2018-05-26T11:55:46.653Z,5.03
2018-05-26T11:58:12.745Z,5.30
2018-05-26T12:00:39.590Z,5.67
2018-05-26T12:03:06.441Z,5.30
2018-05-26T12:05:32.533Z,4.50
2018-05-26T12:07:58.625Z,4.90
2018-05-26T12:10:25.467Z,4.70
2018-05-26T12:12:51.551Z,4.90
2018-05-26T12:15:19.645Z,4.90
2018-05-26T12:17:45.744Z,4.60
2018-05-26T12:20:11.836Z,5.37
2018-05-26T12:22:37.946Z,5.80
2018-05-26T12:25:04.055Z,4.47
2018-05-26T12:27:30.878Z,5.33
2018-05-26T12:29:56.974Z,5.63
2018-05-26T12:32:23.053Z,4.97
2018-05-26T12:34:49.159Z,4.97
2018-05-26T12:37:15.243Z,5.03
2018-05-26T12:39:41.456Z,5.07
2018-05-26T12:42:07.533Z,7.37
2018-05-26T12:44:33.625Z,5.97
2018-05-26T12:46:59.710Z,4.90
2018-05-26T12:49:25.812Z,4.80
2018-05-26T12:51:51.886Z,5.67
2018-05-26T12:54:17.979Z,5.60
2018-05-26T12:56:44.077Z,4.97
2018-05-26T12:59:10.177Z,4.70
2018-05-26T13:01:36.267Z,4.47
2018-05-26T13:04:02.354Z,5.40
2018-05-26T13:06:28.429Z,4.90
2018-05-26T13:08:55.291Z,4.77
2018-05-26T13:11:22.123Z,4.60
2018-05-26T13:13:48.235Z,4.90
2018-05-26T13:16:14.339Z,5.17
2018-05-26T13:18:40.492Z,4.10
2018-05-26T13:21:06.577Z,4.30
2018-05-26T13:23:32.663Z,4.43
2018-05-26T13:25:58.773Z,4.87
2018-05-26T13:28:25.598Z,4.57
2018-05-26T13:30:51.698Z,5.73
2018-05-26T13:33:17.777Z,5.03
2018-05-26T13:35:43.871Z,4.40
2018-05-26T13:38:09.949Z,4.63
2018-05-26T13:40:36.043Z,4.80
2018-05-26T13:43:02.124Z,4.77
2018-05-26T13:45:28.201Z,4.47
2018-05-26T13:47:54.277Z,4.57
2018-05-26T13:50:20.380Z,4.53
2018-05-26T13:52:46.518Z,30.60
2018-05-26T13:55:12.672Z,4.87
2018-05-26T13:57:38.685Z,9.77
2018-05-26T14:00:04.774Z,8.40
2018-05-26T14:02:30.855Z,20.10
2018-05-26T14:04:56.929Z,6.40
2018-05-26T14:07:23.014Z,4.90
2018-05-26T14:09:49.114Z,4.10
2018-05-26T14:12:15.196Z,4.60
2018-05-26T14:14:41.383Z,5.07
2018-05-26T14:17:07.445Z,3.97
2018-05-26T14:19:34.283Z,4.90
2018-05-26T14:22:00.349Z,4.10
2018-05-26T14:24:26.455Z,3.77
2018-05-26T14:26:52.544Z,4.33
2018-05-26T14:29:18.641Z,4.40
2018-05-26T14:31:44.705Z,4.20
2018-05-26T14:34:10.770Z,5.00
2018-05-26T14:36:37.601Z,4.03
2018-05-26T14:39:03.674Z,3.93
2018-05-26T14:41:29.768Z,4.20
2018-05-26T14:43:55.850Z,4.00
2018-05-26T14:46:21.998Z,3.43
2018-05-26T14:48:48.090Z,4.40
2018-05-26T14:51:14.175Z,3.67
2018-05-26T14:53:40.359Z,4.40
2018-05-26T14:56:06.454Z,4.03
2018-05-26T14:58:32.566Z,4.00
2018-05-26T15:00:59.390Z,5.10
2018-05-26T15:03:25.472Z,6.10
2018-05-26T15:05:51.567Z,7.57
2018-05-26T15:08:17.761Z,4.43
2018-05-26T15:10:43.911Z,4.60
2018-05-26T15:13:10.028Z,3.87
2018-05-26T15:15:36.081Z,4.00
2018-05-26T15:18:02.163Z,3.63
2018-05-26T15:20:28.252Z,3.93
2018-05-26T15:22:54.336Z,4.00
2018-05-26T15:25:20.420Z,3.30
2018-05-26T15:27:46.565Z,3.77
2018-05-26T15:30:12.650Z,3.37
2018-05-26T15:32:38.712Z,3.50
2018-05-26T15:35:05.525Z,3.57
2018-05-26T15:37:31.597Z,3.87
2018-05-26T15:39:57.673Z,3.53
2018-05-26T15:42:23.792Z,3.67
2018-05-26T15:44:49.834Z,4.27
2018-05-26T15:47:16.633Z,3.90
2018-05-26T15:49:42.738Z,3.63
2018-05-26T15:52:08.802Z,3.60
2018-05-26T15:54:34.860Z,3.03
2018-05-26T15:57:00.942Z,3.60
2018-05-26T15:59:27.005Z,3.90
2018-05-26T16:01:53.090Z,3.40
2018-05-26T16:04:19.171Z,3.23
2018-05-26T16:06:45.255Z,3.80
2018-05-26T16:09:11.328Z,3.70
2018-05-26T16:11:37.477Z,3.20
2018-05-26T16:14:03.612Z,3.40
2018-05-26T16:16:29.706Z,2.80
2018-05-26T16:18:55.770Z,2.80
2018-05-26T16:21:21.863Z,2.93
2018-05-26T16:23:47.947Z,3.60
2018-05-26T16:26:14.779Z,2.90
2018-05-26T16:28:40.848Z,3.30
2018-05-26T16:31:07.675Z,3.60
2018-05-26T16:33:33.743Z,3.47
2018-05-26T16:36:00.566Z,3.00
2018-05-26T16:38:26.651Z,2.83
2018-05-26T16:40:52.717Z,3.30
2018-05-26T16:43:18.809Z,3.63
2018-05-26T16:45:45.646Z,3.53
2018-05-26T16:48:11.726Z,3.87
2018-05-26T16:50:37.813Z,3.47
2018-05-26T16:53:03.902Z,3.20
2018-05-26T16:55:30.007Z,3.40
2018-05-26T16:57:56.830Z,3.47
2018-05-26T17:00:22.922Z,3.10
2018-05-26T17:02:48.999Z,4.50
2018-05-26T17:05:15.089Z,4.83
2018-05-26T17:07:41.184Z,4.27
2018-05-26T17:10:07.295Z,3.43
2018-05-26T17:12:33.395Z,3.53
2018-05-26T17:14:59.482Z,2.90
2018-05-26T17:17:25.575Z,3.20
2018-05-26T17:19:52.413Z,3.70
2018-05-26T17:22:19.248Z,3.30
2018-05-26T17:24:45.334Z,4.07
2018-05-26T17:27:11.429Z,3.70
2018-05-26T17:29:37.518Z,2.97
2018-05-26T17:32:03.634Z,3.43
2018-05-26T17:34:29.721Z,2.60
2018-05-26T17:36:55.830Z,2.87
2018-05-26T17:39:28.889Z,3.03
2018-05-26T17:41:54.974Z,3.20
2018-05-26T17:44:21.053Z,3.47
2018-05-26T17:46:47.151Z,4.20
2018-05-26T17:49:13.247Z,3.20
2018-05-26T17:51:40.095Z,3.57
2018-05-26T17:54:06.179Z,3.47
2018-05-26T17:56:32.279Z,4.00
2018-05-26T17:58:59.102Z,3.20
2018-05-26T18:01:25.203Z,3.47
2018-05-26T18:03:51.277Z,3.20
2018-05-26T18:06:17.405Z,3.90
2018-05-26T18:08:43.479Z,4.13
2018-05-26T18:11:10.321Z,3.87
2018-05-26T18:13:36.389Z,4.43
2018-05-26T18:16:03.235Z,4.00
2018-05-26T18:18:29.412Z,4.00
2018-05-26T18:20:55.506Z,5.17
2018-05-26T18:23:21.585Z,3.70
2018-05-26T18:25:47.691Z,3.87
2018-05-26T18:28:14.514Z,3.93
2018-05-26T18:30:40.604Z,4.00
2018-05-26T18:33:06.681Z,4.10
2018-05-26T18:35:32.761Z,4.00
2018-05-26T18:37:59.613Z,3.80
2018-05-26T18:40:26.438Z,4.23
2018-05-26T18:42:52.546Z,4.77
2018-05-26T18:45:18.630Z,4.30
2018-05-26T18:47:44.734Z,5.00
2018-05-26T18:50:10.859Z,4.70
2018-05-26T18:52:36.958Z,4.90
2018-05-26T18:55:03.799Z,4.70
2018-05-26T18:57:29.897Z,4.40
2018-05-26T18:59:55.982Z,4.80
2018-05-26T19:02:22.083Z,5.00
2018-05-26T19:04:48.188Z,5.50
2018-05-26T19:07:14.287Z,5.30
2018-05-26T19:09:40.371Z,5.53
2018-05-26T19:12:06.483Z,6.07
2018-05-26T19:14:33.310Z,5.13
2018-05-26T19:16:59.413Z,6.33
2018-05-26T19:19:25.515Z,6.20
2018-05-26T19:21:52.352Z,6.20
2018-05-26T19:24:18.455Z,6.10
2018-05-26T19:26:44.560Z,6.30
2018-05-26T19:29:10.645Z,5.67
2018-05-26T19:31:36.741Z,6.53
2018-05-26T19:34:02.835Z,7.80
2018-05-26T19:36:28.940Z,7.20
2018-05-26T19:38:55.026Z,8.13
2018-05-26T19:41:21.124Z,10.27
2018-05-26T19:43:47.234Z,8.27
2018-05-26T19:46:13.379Z,7.73
2018-05-26T19:48:39.464Z,7.07
2018-05-26T19:51:05.546Z,7.07
2018-05-26T19:53:31.645Z,6.50
2018-05-26T19:55:57.720Z,7.30
2018-05-26T19:58:23.881Z,6.57
2018-05-26T20:00:50.665Z,8.10
2018-05-26T20:03:16.767Z,7.43
2018-05-26T20:05:42.863Z,7.67
2018-05-26T20:08:08.972Z,8.57
2018-05-26T20:10:35.049Z,11.50
2018-05-26T20:13:01.894Z,8.77
2018-05-26T20:15:28.084Z,9.40
2018-05-26T20:17:54.245Z,10.37
2018-05-26T20:20:20.289Z,8.50
2018-05-26T20:22:46.373Z,9.00
2018-05-26T20:25:12.455Z,10.90
2018-05-26T20:27:38.554Z,12.67
2018-05-26T20:30:04.646Z,10.23
2018-05-26T20:32:30.756Z,8.80
2018-05-26T20:34:56.841Z,10.77
2018-05-26T20:37:22.939Z,9.30
2018-05-26T20:39:49.022Z,9.50
2018-05-26T20:42:15.882Z,9.80
2018-05-26T20:44:42.687Z,9.63
2018-05-26T20:47:08.769Z,8.23
2018-05-26T20:49:35.565Z,8.60
2018-05-26T20:52:01.641Z,7.80
2018-05-26T20:54:27.717Z,7.90
2018-05-26T20:56:53.798Z,8.20
2018-05-26T20:59:19.861Z,8.47
2018-05-26T21:01:45.933Z,8.43
2018-05-26T21:04:11.989Z,8.90
2018-05-26T21:06:38.113Z,8.90
2018-05-26T21:09:04.207Z,8.10
2018-05-26T21:11:30.308Z,8.33
2018-05-26T21:13:56.425Z,10.20
2018-05-26T21:16:22.497Z,10.00
2018-05-26T21:18:48.588Z,11.20
2018-05-26T21:21:14.674Z,8.10
2018-05-26T21:23:40.745Z,8.70
2018-05-26T21:26:06.806Z,7.33
2018-05-26T21:28:32.889Z,8.00
2018-05-26T21:30:58.949Z,9.03
2018-05-26T21:33:25.026Z,9.60
2018-05-26T21:35:51.093Z,9.00
2018-05-26T21:38:17.905Z,8.63
2018-05-26T21:40:44.008Z,9.27
2018-05-26T21:43:10.119Z,9.40
2018-05-26T21:45:36.177Z,10.27
2018-05-26T21:48:02.262Z,9.93
2018-05-26T21:50:28.339Z,10.93
2018-05-26T21:52:54.425Z,9.70
2018-05-26T21:55:21.290Z,8.83
2018-05-26T21:57:47.396Z,9.70
2018-05-26T22:00:13.462Z,9.90
2018-05-26T22:02:39.542Z,8.90
2018-05-26T22:05:05.642Z,9.33
2018-05-26T22:07:31.742Z,8.90
2018-05-26T22:09:57.814Z,10.77
2018-05-26T22:12:23.907Z,11.10
2018-05-26T22:14:49.978Z,12.00
2018-05-26T22:17:16.807Z,12.10
2018-05-26T22:19:42.883Z,10.43
2018-05-26T22:22:08.965Z,10.37
2018-05-26T22:24:35.046Z,10.43
2018-05-26T22:27:01.134Z,9.63
2018-05-26T22:29:27.198Z,9.93
2018-05-26T22:31:53.269Z,10.93
2018-05-26T22:34:19.349Z,10.53
2018-05-26T22:36:45.419Z,10.13
2018-05-26T22:39:11.495Z,9.83
2018-05-26T22:41:37.621Z,10.20
2018-05-26T22:44:03.715Z,9.97
2018-05-26T22:46:29.783Z,8.50
2018-05-26T22:48:56.603Z,10.13
2018-05-26T22:51:22.681Z,9.60
2018-05-26T22:53:48.774Z,9.70
2018-05-26T22:56:14.837Z,9.90
2018-05-26T22:58:40.913Z,9.33
2018-05-26T23:01:06.977Z,9.20
2018-05-26T23:03:33.053Z,9.40
2018-05-26T23:05:59.114Z,9.27
2018-05-26T23:08:25.203Z,9.57
2018-05-26T23:10:51.284Z,12.90
2018-05-26T23:13:17.383Z,9.60
2018-05-26T23:15:43.467Z,10.87
2018-05-26T23:18:09.543Z,9.53
2018-05-26T23:20:35.614Z,9.50
2018-05-26T23:23:01.703Z,9.70
2018-05-26T23:25:27.771Z,9.17
2018-05-26T23:27:53.850Z,9.00
2018-05-26T23:30:19.987Z,8.77
2018-05-26T23:32:46.066Z,10.23
2018-05-26T23:35:12.159Z,9.40
2018-05-26T23:37:38.250Z,9.43
2018-05-26T23:40:04.329Z,9.03
2018-05-26T23:42:31.221Z,8.90
2018-05-26T23:44:57.327Z,10.53
2018-05-26T23:47:24.130Z,10.77
2018-05-26T23:49:50.242Z,9.77
2018-05-26T23:52:16.326Z,9.73
2018-05-26T23:54:42.418Z,9.73
2018-05-26T23:57:08.490Z,9.50
2018-05-26T23:59:34.590Z,9.60
